sensor_id;sensor_type;location;lat;lon;timestamp;pressure;altitude;pressure_sealevel;temperature;humidity
43934;BME280;59081;42.706;23.306;2023-03-03T00:00:50;95308.03;;;3.10;100.00
43934;BME280;59081;42.706;23.306;2023-03-03T00:03:21;95229.34;;;2.49;100.00
43934;BME280;59081;42.706;23.306;2023-03-03T00:05:47;95308.38;;;2.98;100.00
43934;BME280;59081;42.706;23.306;2023-03-03T00:08:12;95193.53;;;2.25;100.00
43934;BME280;59081;42.706;23.306;2023-03-03T00:10:38;95224.72;;;2.67;100.00
43934;BME280;59081;42.706;23.306;2023-03-03T00:13:12;95177.56;;;2.13;100.00
43934;BME280;59081;42.706;23.306;2023-03-03T00:15:39;95282.31;;;2.90;100.00
43934;BME280;59081;42.706;23.306;2023-03-03T00:18:25;95291.66;;;3.03;100.00
43934;BME280;59081;42.706;23.306;2023-03-03T00:20:55;95097.81;;;1.63;100.00
43934;BME280;59081;42.706;23.306;2023-03-03T00:23:30;95290.88;;;2.92;100.00
43934;BME280;59081;42.706;23.306;2023-03-03T00:25:59;95164.41;;;2.22;100.00
43934;BME280;59081;42.706;23.306;2023-03-03T00:30:55;95166.72;;;2.20;100.00
43934;BME280;59081;42.706;23.306;2023-03-03T00:33:24;95288.53;;;3.01;100.00
43934;BME280;59081;42.706;23.306;2023-03-03T00:35:58;95203.28;;;2.33;100.00
43934;BME280;59081;42.706;23.306;2023-03-03T00:38:28;95207.09;;;2.25;100.00
43934;BME280;59081;42.706;23.306;2023-03-03T00:40:54;95202.06;;;2.27;100.00
43934;BME280;59081;42.706;23.306;2023-03-03T00:43:24;95160.13;;;2.18;100.00
43934;BME280;59081;42.706;23.306;2023-03-03T00:45:55;95143.00;;;2.03;100.00
43934;BME280;59081;42.706;23.306;2023-03-03T00:48:39;95274.91;;;2.87;100.00
43934;BME280;59081;42.706;23.306;2023-03-03T00:53:47;95255.81;;;2.69;100.00
43934;BME280;59081;42.706;23.306;2023-03-03T00:56:12;95226.66;;;2.56;100.00
43934;BME280;59081;42.706;23.306;2023-03-03T00:58:38;95127.03;;;1.87;100.00
43934;BME280;59081;42.706;23.306;2023-03-03T01:01:04;95148.03;;;2.08;100.00
43934;BME280;59081;42.706;23.306;2023-03-03T01:03:30;95132.94;;;2.07;100.00
43934;BME280;59081;42.706;23.306;2023-03-03T01:05:56;95135.28;;;2.26;100.00
43934;BME280;59081;42.706;23.306;2023-03-03T01:08:21;95090.09;;;1.68;100.00
43934;BME280;59081;42.706;23.306;2023-03-03T01:10:50;95164.38;;;2.15;100.00
43934;BME280;59081;42.706;23.306;2023-03-03T01:13:16;95152.72;;;2.04;100.00
43934;BME280;59081;42.706;23.306;2023-03-03T01:15:42;95147.28;;;2.04;100.00
43934;BME280;59081;42.706;23.306;2023-03-03T01:18:09;95143.72;;;1.96;100.00
43934;BME280;59081;42.706;23.306;2023-03-03T01:20:35;95146.03;;;1.91;100.00
43934;BME280;59081;42.706;23.306;2023-03-03T01:23:00;95118.06;;;1.80;100.00
43934;BME280;59081;42.706;23.306;2023-03-03T01:25:26;95114.28;;;2.02;100.00
43934;BME280;59081;42.706;23.306;2023-03-03T01:27:51;95252.38;;;2.90;100.00
43934;BME280;59081;42.706;23.306;2023-03-03T01:30:17;95221.63;;;2.72;100.00
43934;BME280;59081;42.706;23.306;2023-03-03T01:32:42;95151.22;;;2.24;100.00
43934;BME280;59081;42.706;23.306;2023-03-03T01:35:08;95078.47;;;1.71;100.00
43934;BME280;59081;42.706;23.306;2023-03-03T01:37:34;95150.81;;;2.26;100.00
43934;BME280;59081;42.706;23.306;2023-03-03T01:40:05;95160.97;;;2.47;100.00
43934;BME280;59081;42.706;23.306;2023-03-03T01:42:32;95119.34;;;2.14;100.00
43934;BME280;59081;42.706;23.306;2023-03-03T01:50:26;95044.66;;;1.51;100.00
43934;BME280;59081;42.706;23.306;2023-03-03T01:52:53;95172.94;;;2.21;100.00
43934;BME280;59081;42.706;23.306;2023-03-03T01:55:22;95154.75;;;2.42;100.00
43934;BME280;59081;42.706;23.306;2023-03-03T01:58:00;95114.69;;;2.15;100.00
43934;BME280;59081;42.706;23.306;2023-03-03T02:00:28;95140.72;;;2.26;100.00
43934;BME280;59081;42.706;23.306;2023-03-03T02:02:54;95081.91;;;1.61;100.00
43934;BME280;59081;42.706;23.306;2023-03-03T02:05:20;95158.56;;;2.20;100.00
43934;BME280;59081;42.706;23.306;2023-03-03T02:07:45;95092.00;;;1.64;100.00
43934;BME280;59081;42.706;23.306;2023-03-03T02:10:15;95105.72;;;2.00;100.00
43934;BME280;59081;42.706;23.306;2023-03-03T02:12:50;95228.66;;;2.84;100.00
43934;BME280;59081;42.706;23.306;2023-03-03T02:15:29;95231.38;;;2.76;100.00
43934;BME280;59081;42.706;23.306;2023-03-03T02:17:59;95093.66;;;1.94;100.00
43934;BME280;59081;42.706;23.306;2023-03-03T02:23:19;95225.16;;;2.76;100.00
43934;BME280;59081;42.706;23.306;2023-03-03T02:28:33;95157.00;;;2.12;100.00
43934;BME280;59081;42.706;23.306;2023-03-03T02:31:00;95144.91;;;1.99;100.00
43934;BME280;59081;42.706;23.306;2023-03-03T02:33:26;95090.84;;;1.62;100.00
43934;BME280;59081;42.706;23.306;2023-03-03T02:35:52;94989.78;;;1.07;100.00
43934;BME280;59081;42.706;23.306;2023-03-03T02:46:23;95157.81;;;2.30;100.00
43934;BME280;59081;42.706;23.306;2023-03-03T02:48:49;95145.78;;;2.24;100.00
43934;BME280;59081;42.706;23.306;2023-03-03T02:51:14;95077.69;;;1.71;100.00
43934;BME280;59081;42.706;23.306;2023-03-03T02:53:40;95144.28;;;2.41;100.00
43934;BME280;59081;42.706;23.306;2023-03-03T02:56:06;95041.56;;;1.60;100.00
43934;BME280;59081;42.706;23.306;2023-03-03T02:58:34;95227.06;;;2.58;100.00
43934;BME280;59081;42.706;23.306;2023-03-03T03:00:59;95173.34;;;2.26;100.00
43934;BME280;59081;42.706;23.306;2023-03-03T03:03:24;95162.47;;;2.19;100.00
43934;BME280;59081;42.706;23.306;2023-03-03T03:05:50;95033.75;;;1.44;100.00
43934;BME280;59081;42.706;23.306;2023-03-03T03:08:15;95153.16;;;2.31;100.00
43934;BME280;59081;42.706;23.306;2023-03-03T03:10:41;95084.31;;;1.81;100.00
43934;BME280;59081;42.706;23.306;2023-03-03T03:13:06;95150.03;;;2.25;100.00
43934;BME280;59081;42.706;23.306;2023-03-03T03:15:34;95056.34;;;1.66;100.00
43934;BME280;59081;42.706;23.306;2023-03-03T03:17:59;95059.38;;;1.57;100.00
43934;BME280;59081;42.706;23.306;2023-03-03T03:20:25;95182.75;;;2.61;100.00
43934;BME280;59081;42.706;23.306;2023-03-03T03:22:50;95121.28;;;2.14;100.00
43934;BME280;59081;42.706;23.306;2023-03-03T03:25:16;95034.59;;;1.62;100.00
43934;BME280;59081;42.706;23.306;2023-03-03T03:27:41;95099.50;;;1.99;100.00
43934;BME280;59081;42.706;23.306;2023-03-03T03:30:07;95086.25;;;1.73;100.00
43934;BME280;59081;42.706;23.306;2023-03-03T03:32:33;95036.47;;;1.48;100.00
43934;BME280;59081;42.706;23.306;2023-03-03T03:34:58;95087.09;;;2.02;100.00
43934;BME280;59081;42.706;23.306;2023-03-03T03:37:24;95120.09;;;2.04;100.00
43934;BME280;59081;42.706;23.306;2023-03-03T03:39:50;95136.47;;;2.29;100.00
43934;BME280;59081;42.706;23.306;2023-03-03T03:42:15;95155.50;;;2.32;100.00
43934;BME280;59081;42.706;23.306;2023-03-03T03:44:41;94993.72;;;1.20;100.00
43934;BME280;59081;42.706;23.306;2023-03-03T03:47:06;95137.63;;;2.24;100.00
43934;BME280;59081;42.706;23.306;2023-03-03T03:49:32;95056.00;;;1.82;100.00
43934;BME280;59081;42.706;23.306;2023-03-03T03:51:57;95207.59;;;2.52;100.00
43934;BME280;59081;42.706;23.306;2023-03-03T03:54:23;95065.69;;;1.72;100.00
43934;BME280;59081;42.706;23.306;2023-03-03T03:56:48;95023.34;;;1.60;100.00
43934;BME280;59081;42.706;23.306;2023-03-03T03:59:14;95131.38;;;2.13;100.00
43934;BME280;59081;42.706;23.306;2023-03-03T04:01:39;95062.91;;;1.65;100.00
43934;BME280;59081;42.706;23.306;2023-03-03T04:04:05;95125.22;;;2.30;100.00
43934;BME280;59081;42.706;23.306;2023-03-03T04:06:30;95104.16;;;1.95;100.00
43934;BME280;59081;42.706;23.306;2023-03-03T04:08:56;95082.34;;;1.70;100.00
43934;BME280;59081;42.706;23.306;2023-03-03T04:11:21;95028.75;;;1.50;100.00
43934;BME280;59081;42.706;23.306;2023-03-03T04:13:47;95049.72;;;1.63;100.00
43934;BME280;59081;42.706;23.306;2023-03-03T04:16:12;95070.75;;;1.84;100.00
43934;BME280;59081;42.706;23.306;2023-03-03T04:18:38;95096.81;;;2.14;100.00
43934;BME280;59081;42.706;23.306;2023-03-03T04:21:04;95120.91;;;2.15;100.00
43934;BME280;59081;42.706;23.306;2023-03-03T04:23:29;94982.47;;;1.14;100.00
43934;BME280;59081;42.706;23.306;2023-03-03T04:25:55;95073.44;;;1.77;100.00
43934;BME280;59081;42.706;23.306;2023-03-03T04:28:20;95124.38;;;2.12;100.00
43934;BME280;59081;42.706;23.306;2023-03-03T04:30:46;95110.00;;;2.01;100.00
43934;BME280;59081;42.706;23.306;2023-03-03T04:33:12;95092.13;;;2.00;100.00
43934;BME280;59081;42.706;23.306;2023-03-03T04:35:37;95139.63;;;2.49;100.00
43934;BME280;59081;42.706;23.306;2023-03-03T04:38:03;95105.34;;;2.01;100.00
43934;BME280;59081;42.706;23.306;2023-03-03T04:40:30;94975.03;;;1.04;100.00
43934;BME280;59081;42.706;23.306;2023-03-03T04:42:55;95015.44;;;1.23;100.00
43934;BME280;59081;42.706;23.306;2023-03-03T04:45:20;95067.91;;;1.52;100.00
43934;BME280;59081;42.706;23.306;2023-03-03T04:47:46;95076.47;;;1.58;100.00
43934;BME280;59081;42.706;23.306;2023-03-03T04:50:11;95133.69;;;2.04;100.00
43934;BME280;59081;42.706;23.306;2023-03-03T04:52:37;95138.44;;;2.46;100.00
43934;BME280;59081;42.706;23.306;2023-03-03T04:55:03;95068.31;;;1.54;100.00
43934;BME280;59081;42.706;23.306;2023-03-03T04:57:40;95113.03;;;1.82;100.00
43934;BME280;59081;42.706;23.306;2023-03-03T05:00:29;95132.84;;;1.93;100.00
43934;BME280;59081;42.706;23.306;2023-03-03T05:06:15;95174.84;;;2.09;100.00
43934;BME280;59081;42.706;23.306;2023-03-03T05:08:43;95140.69;;;2.12;100.00
43934;BME280;59081;42.706;23.306;2023-03-03T05:11:08;95170.25;;;2.24;100.00
43934;BME280;59081;42.706;23.306;2023-03-03T05:13:34;95120.09;;;2.04;100.00
43934;BME280;59081;42.706;23.306;2023-03-03T05:15:59;95090.84;;;1.65;100.00
43934;BME280;59081;42.706;23.306;2023-03-03T05:18:25;95069.13;;;1.65;100.00
43934;BME280;59081;42.706;23.306;2023-03-03T05:20:52;95126.25;;;1.94;100.00
43934;BME280;59081;42.706;23.306;2023-03-03T05:23:18;95132.09;;;1.99;100.00
43934;BME280;59081;42.706;23.306;2023-03-03T05:25:46;95171.06;;;2.42;100.00
43934;BME280;59081;42.706;23.306;2023-03-03T05:28:12;94992.09;;;1.04;100.00
43934;BME280;59081;42.706;23.306;2023-03-03T05:30:37;95121.56;;;1.80;100.00
43934;BME280;59081;42.706;23.306;2023-03-03T05:33:04;95026.31;;;1.27;100.00
43934;BME280;59081;42.706;23.306;2023-03-03T05:35:29;95166.28;;;2.11;100.00
43934;BME280;59081;42.706;23.306;2023-03-03T05:37:55;95124.31;;;1.94;100.00
43934;BME280;59081;42.706;23.306;2023-03-03T05:40:25;95120.50;;;2.06;100.00
43934;BME280;59081;42.706;23.306;2023-03-03T05:42:51;95113.47;;;1.98;100.00
43934;BME280;59081;42.706;23.306;2023-03-03T05:45:18;95109.94;;;1.87;100.00
43934;BME280;59081;42.706;23.306;2023-03-03T05:47:49;95097.53;;;1.86;100.00
43934;BME280;59081;42.706;23.306;2023-03-03T05:50:15;95103.31;;;1.81;100.00
43934;BME280;59081;42.706;23.306;2023-03-03T05:52:41;95141.50;;;2.23;100.00
43934;BME280;59081;42.706;23.306;2023-03-03T05:55:07;95014.81;;;1.55;100.00
43934;BME280;59081;42.706;23.306;2023-03-03T05:57:33;95100.25;;;1.93;100.00
43934;BME280;59081;42.706;23.306;2023-03-03T06:00:00;95111.19;;;2.14;100.00
43934;BME280;59081;42.706;23.306;2023-03-03T06:02:26;95062.16;;;1.64;100.00
43934;BME280;59081;42.706;23.306;2023-03-03T06:04:52;95201.38;;;2.52;100.00
43934;BME280;59081;42.706;23.306;2023-03-03T06:07:17;95077.78;;;2.10;100.00
43934;BME280;59081;42.706;23.306;2023-03-03T06:09:42;95073.44;;;1.81;100.00
43934;BME280;59081;42.706;23.306;2023-03-03T06:12:08;95033.41;;;1.56;100.00
43934;BME280;59081;42.706;23.306;2023-03-03T06:14:33;95118.16;;;2.04;100.00
43934;BME280;59081;42.706;23.306;2023-03-03T06:16:59;95151.22;;;2.24;100.00
43934;BME280;59081;42.706;23.306;2023-03-03T06:19:25;95015.13;;;1.39;100.00
43934;BME280;59081;42.706;23.306;2023-03-03T06:21:50;95193.28;;;2.80;100.00
43934;BME280;59081;42.706;23.306;2023-03-03T06:24:15;95134.53;;;2.29;100.00
43934;BME280;59081;42.706;23.306;2023-03-03T06:26:41;95087.88;;;2.02;100.00
43934;BME280;59081;42.706;23.306;2023-03-03T06:29:07;95187.06;;;2.72;100.00
43934;BME280;59081;42.706;23.306;2023-03-03T06:31:32;95052.16;;;1.90;100.00
43934;BME280;59081;42.706;23.306;2023-03-03T06:33:59;95162.19;;;2.67;100.00
43934;BME280;59081;42.706;23.306;2023-03-03T06:36:24;95136.09;;;2.34;100.00
43934;BME280;59081;42.706;23.306;2023-03-03T06:38:50;95139.19;;;2.43;100.00
43934;BME280;59081;42.706;23.306;2023-03-03T06:41:16;95036.13;;;1.56;100.00
43934;BME280;59081;42.706;23.306;2023-03-03T06:43:41;95204.13;;;2.59;100.00
43934;BME280;59081;42.706;23.306;2023-03-03T06:46:07;95119.34;;;2.07;100.00
43934;BME280;59081;42.706;23.306;2023-03-03T06:48:32;95109.31;;;2.39;100.00
43934;BME280;59081;42.706;23.306;2023-03-03T06:50:59;95158.28;;;2.57;100.00
43934;BME280;59081;42.706;23.306;2023-03-03T06:53:26;95077.00;;;1.99;100.00
43934;BME280;59081;42.706;23.306;2023-03-03T06:55:51;95068.44;;;1.86;100.00
43934;BME280;59081;42.706;23.306;2023-03-03T06:58:20;95127.56;;;2.35;100.00
43934;BME280;59081;42.706;23.306;2023-03-03T07:00:53;95075.50;;;2.26;100.00
43934;BME280;59081;42.706;23.306;2023-03-03T07:03:33;95136.88;;;2.45;100.00
43934;BME280;59081;42.706;23.306;2023-03-03T07:06:00;95236.47;;;3.06;100.00
43934;BME280;59081;42.706;23.306;2023-03-03T07:08:29;95099.13;;;2.08;100.00
43934;BME280;59081;42.706;23.306;2023-03-03T07:10:59;95176.16;;;2.62;100.00
43934;BME280;59081;42.706;23.306;2023-03-03T07:13:27;95114.34;;;2.30;100.00
43934;BME280;59081;42.706;23.306;2023-03-03T07:15:55;95062.28;;;2.14;100.00
43934;BME280;59081;42.706;23.306;2023-03-03T07:20:52;95101.91;;;2.29;100.00
43934;BME280;59081;42.706;23.306;2023-03-03T07:23:24;95235.69;;;3.13;100.00
43934;BME280;59081;42.706;23.306;2023-03-03T07:25:51;95143.88;;;2.50;100.00
43934;BME280;59081;42.706;23.306;2023-03-03T07:28:23;95106.63;;;2.54;100.00
43934;BME280;59081;42.706;23.306;2023-03-03T07:30:50;95210.03;;;3.10;100.00
43934;BME280;59081;42.706;23.306;2023-03-03T07:33:37;95164.13;;;2.98;100.00
43934;BME280;59081;42.706;23.306;2023-03-03T07:36:17;95118.66;;;2.56;100.00
43934;BME280;59081;42.706;23.306;2023-03-03T07:39:40;95230.25;;;3.24;100.00
43934;BME280;59081;42.706;23.306;2023-03-03T07:44:34;95222.50;;;3.43;100.00
43934;BME280;59081;42.706;23.306;2023-03-03T07:47:14;95212.38;;;3.19;100.00
43934;BME280;59081;42.706;23.306;2023-03-03T07:49:41;95076.69;;;2.32;100.00
43934;BME280;59081;42.706;23.306;2023-03-03T07:52:24;95134.59;;;2.72;100.00
43934;BME280;59081;42.706;23.306;2023-03-03T07:54:51;95004.06;;;2.33;100.00
43934;BME280;59081;42.706;23.306;2023-03-03T07:57:24;95099.25;;;2.72;100.00
43934;BME280;59081;42.706;23.306;2023-03-03T08:02:59;95223.25;;;3.40;100.00
43934;BME280;59081;42.706;23.306;2023-03-03T08:05:30;95217.38;;;3.70;100.00
43934;BME280;59081;42.706;23.306;2023-03-03T08:10:51;95212.31;;;3.65;100.00
43934;BME280;59081;42.706;23.306;2023-03-03T08:13:27;95204.53;;;3.71;100.00
43934;BME280;59081;42.706;23.306;2023-03-03T08:18:45;95049.88;;;2.84;100.00
43934;BME280;59081;42.706;23.306;2023-03-03T08:21:29;95211.91;;;3.84;100.00
43934;BME280;59081;42.706;23.306;2023-03-03T08:23:58;95131.47;;;3.41;100.00
43934;BME280;59081;42.706;23.306;2023-03-03T08:26:25;94990.88;;;2.24;100.00
43934;BME280;59081;42.706;23.306;2023-03-03T08:28:51;95062.34;;;2.57;100.00
43934;BME280;59081;42.706;23.306;2023-03-03T08:31:17;95172.31;;;3.41;100.00
43934;BME280;59081;42.706;23.306;2023-03-03T08:33:43;95160.25;;;3.45;100.00
43934;BME280;59081;42.706;23.306;2023-03-03T08:36:09;95025.00;;;2.82;100.00
43934;BME280;59081;42.706;23.306;2023-03-03T08:38:34;95206.88;;;3.72;100.00
43934;BME280;59081;42.706;23.306;2023-03-03T08:41:00;95101.19;;;3.07;100.00
43934;BME280;59081;42.706;23.306;2023-03-03T08:43:26;95056.50;;;2.65;100.00
43934;BME280;59081;42.706;23.306;2023-03-03T08:45:57;94979.97;;;2.14;100.00
43934;BME280;59081;42.706;23.306;2023-03-03T08:48:23;95190.19;;;3.42;100.00
43934;BME280;59081;42.706;23.306;2023-03-03T08:50:49;95059.22;;;2.90;100.00
43934;BME280;59081;42.706;23.306;2023-03-03T08:53:15;95090.69;;;2.98;100.00
43934;BME280;59081;42.706;23.306;2023-03-03T08:55:41;94992.00;;;2.44;100.00
43934;BME280;59081;42.706;23.306;2023-03-03T08:58:07;95057.66;;;2.82;100.00
43934;BME280;59081;42.706;23.306;2023-03-03T09:00:33;95133.78;;;3.39;100.00
43934;BME280;59081;42.706;23.306;2023-03-03T09:02:58;95208.75;;;4.07;100.00
43934;BME280;59081;42.706;23.306;2023-03-03T09:05:24;95011.41;;;2.89;100.00
43934;BME280;59081;42.706;23.306;2023-03-03T09:07:51;95135.31;;;3.47;100.00
43934;BME280;59081;42.706;23.306;2023-03-03T09:10:20;95189.38;;;3.80;100.00
43934;BME280;59081;42.706;23.306;2023-03-03T09:12:51;95204.47;;;4.03;100.00
43934;BME280;59081;42.706;23.306;2023-03-03T09:17:43;95030.38;;;3.21;100.00
43934;BME280;59081;42.706;23.306;2023-03-03T09:20:31;95204.84;;;4.12;100.00
43934;BME280;59081;42.706;23.306;2023-03-03T09:22:59;95061.91;;;3.04;100.00
43934;BME280;59081;42.706;23.306;2023-03-03T09:25:41;95163.25;;;3.90;100.00
43934;BME280;59081;42.706;23.306;2023-03-03T09:30:48;95146.06;;;4.04;100.00
43934;BME280;59081;42.706;23.306;2023-03-03T09:36:26;95070.75;;;3.51;100.00
43934;BME280;59081;42.706;23.306;2023-03-03T09:38:53;95215.25;;;4.42;100.00
43934;BME280;59081;42.706;23.306;2023-03-03T09:44:36;95205.88;;;4.46;100.00
43934;BME280;59081;42.706;23.306;2023-03-03T10:00:56;95197.22;;;4.62;100.00
43934;BME280;59081;42.706;23.306;2023-03-03T10:06:31;95194.13;;;4.57;100.00
43934;BME280;59081;42.706;23.306;2023-03-03T10:12:07;95126.81;;;4.36;100.00
43934;BME280;59081;42.706;23.306;2023-03-03T10:17:43;95187.16;;;4.48;100.00
43934;BME280;59081;42.706;23.306;2023-03-03T10:31:16;95029.53;;;3.42;100.00
43934;BME280;59081;42.706;23.306;2023-03-03T10:38:55;95107.03;;;4.25;100.00
43934;BME280;59081;42.706;23.306;2023-03-03T10:41:49;95167.63;;;4.53;100.00
43934;BME280;59081;42.706;23.306;2023-03-03T10:47:04;95129.63;;;4.22;100.00
43934;BME280;59081;42.706;23.306;2023-03-03T10:49:55;95076.66;;;4.23;100.00
43934;BME280;59081;42.706;23.306;2023-03-03T10:52:32;94978.91;;;3.59;100.00
43934;BME280;59081;42.706;23.306;2023-03-03T10:55:22;95158.50;;;4.81;100.00
43934;BME280;59081;42.706;23.306;2023-03-03T11:06:25;95109.16;;;4.58;100.00
43934;BME280;59081;42.706;23.306;2023-03-03T11:14:46;95152.84;;;5.06;100.00
43934;BME280;59081;42.706;23.306;2023-03-03T11:26:09;95131.28;;;5.22;100.00
43934;BME280;59081;42.706;23.306;2023-03-03T11:31:45;95118.25;;;4.96;100.00
43934;BME280;59081;42.706;23.306;2023-03-03T11:40:40;94965.88;;;3.91;100.00
43934;BME280;59081;42.706;23.306;2023-03-03T11:43:17;94940.03;;;5.60;100.00
43934;BME280;59081;42.706;23.306;2023-03-03T11:45:59;94964.66;;;6.41;100.00
43934;BME280;59081;42.706;23.306;2023-03-03T11:48:49;95089.03;;;6.63;94.12
43934;BME280;59081;42.706;23.306;2023-03-03T11:51:33;95126.50;;;6.09;99.70
43934;BME280;59081;42.706;23.306;2023-03-03T11:54:13;95059.47;;;5.25;100.00
43934;BME280;59081;42.706;23.306;2023-03-03T11:56:42;95012.78;;;5.13;100.00
43934;BME280;59081;42.706;23.306;2023-03-03T11:59:41;95120.00;;;5.58;100.00
43934;BME280;59081;42.706;23.306;2023-03-03T12:05:29;94961.88;;;4.54;100.00
43934;BME280;59081;42.706;23.306;2023-03-03T12:08:22;94958.13;;;4.82;100.00
43934;BME280;59081;42.706;23.306;2023-03-03T12:11:24;95116.56;;;5.54;100.00
43934;BME280;59081;42.706;23.306;2023-03-03T12:22:34;95036.56;;;4.71;100.00
43934;BME280;59081;42.706;23.306;2023-03-03T12:35:45;95118.38;;;5.23;100.00
43934;BME280;59081;42.706;23.306;2023-03-03T12:41:35;95121.91;;;5.23;100.00
43934;BME280;59081;42.706;23.306;2023-03-03T12:44:23;95125.63;;;4.99;100.00
43934;BME280;59081;42.706;23.306;2023-03-03T12:47:20;95129.28;;;4.82;100.00
43934;BME280;59081;42.706;23.306;2023-03-03T12:49:59;95121.28;;;5.05;100.00
43934;BME280;59081;42.706;23.306;2023-03-03T12:58:42;95123.09;;;4.71;100.00
43934;BME280;59081;42.706;23.306;2023-03-03T13:13:44;95117.56;;;4.81;100.00
43934;BME280;59081;42.706;23.306;2023-03-03T13:16:18;95043.25;;;4.08;100.00
43934;BME280;59081;42.706;23.306;2023-03-03T13:19:08;95109.34;;;4.85;100.00
43934;BME280;59081;42.706;23.306;2023-03-03T13:21:59;95108.34;;;4.65;100.00
43934;BME280;59081;42.706;23.306;2023-03-03T13:27:27;94944.06;;;4.43;100.00
43934;BME280;59081;42.706;23.306;2023-03-03T13:30:13;95100.50;;;5.56;100.00
43934;BME280;59081;42.706;23.306;2023-03-03T13:32:56;94962.22;;;5.01;100.00
43934;BME280;59081;42.706;23.306;2023-03-03T13:38:24;95069.97;;;6.02;100.00
43934;BME280;59081;42.706;23.306;2023-03-03T13:46:25;95098.00;;;5.72;100.00
43934;BME280;59081;42.706;23.306;2023-03-03T13:52:07;95096.63;;;5.91;100.00
43934;BME280;59081;42.706;23.306;2023-03-03T13:57:44;94997.38;;;4.92;100.00
43934;BME280;59081;42.706;23.306;2023-03-03T14:00:59;95097.50;;;5.81;100.00
43934;BME280;59081;42.706;23.306;2023-03-03T14:03:26;95106.69;;;5.64;100.00
43934;BME280;59081;42.706;23.306;2023-03-03T14:06:08;94996.81;;;4.70;100.00
43934;BME280;59081;42.706;23.306;2023-03-03T14:19:31;95008.34;;;4.44;100.00
43934;BME280;59081;42.706;23.306;2023-03-03T14:25:04;95030.19;;;4.85;100.00
43934;BME280;59081;42.706;23.306;2023-03-03T14:30:35;95017.84;;;4.73;100.00
43934;BME280;59081;42.706;23.306;2023-03-03T14:35:38;95087.91;;;5.32;100.00
43934;BME280;59081;42.706;23.306;2023-03-03T14:40:35;95060.66;;;4.83;100.00
43934;BME280;59081;42.706;23.306;2023-03-03T14:43:07;94985.97;;;4.63;100.00
43934;BME280;59081;42.706;23.306;2023-03-03T14:45:42;94968.22;;;4.41;100.00
43934;BME280;59081;42.706;23.306;2023-03-03T14:48:26;95076.81;;;5.05;100.00
43934;BME280;59081;42.706;23.306;2023-03-03T14:50:53;95084.56;;;5.10;100.00
43934;BME280;59081;42.706;23.306;2023-03-03T14:53:35;94994.16;;;4.63;100.00
43934;BME280;59081;42.706;23.306;2023-03-03T14:56:25;95091.22;;;5.09;100.00
43934;BME280;59081;42.706;23.306;2023-03-03T14:58:54;95031.63;;;4.55;100.00
43934;BME280;59081;42.706;23.306;2023-03-03T15:01:36;94911.34;;;3.95;100.00
43934;BME280;59081;42.706;23.306;2023-03-03T15:04:06;94971.84;;;4.72;100.00
43934;BME280;59081;42.706;23.306;2023-03-03T15:06:35;95079.00;;;5.20;100.00
43934;BME280;59081;42.706;23.306;2023-03-03T15:11:53;94886.97;;;3.77;100.00
43934;BME280;59081;42.706;23.306;2023-03-03T15:14:21;94973.59;;;4.51;100.00
43934;BME280;59081;42.706;23.306;2023-03-03T15:16:47;94979.47;;;4.50;100.00
43934;BME280;59081;42.706;23.306;2023-03-03T15:19:42;94951.75;;;4.07;100.00
43934;BME280;59081;42.706;23.306;2023-03-03T15:27:36;94983.16;;;4.26;100.00
43934;BME280;59081;42.706;23.306;2023-03-03T15:33:04;95035.66;;;4.37;100.00
43934;BME280;59081;42.706;23.306;2023-03-03T15:35:56;95088.06;;;4.66;100.00
43934;BME280;59081;42.706;23.306;2023-03-03T15:38:48;95085.00;;;4.57;100.00
43934;BME280;59081;42.706;23.306;2023-03-03T15:47:52;95088.50;;;4.61;100.00
43934;BME280;59081;42.706;23.306;2023-03-03T15:52:44;95078.88;;;4.38;100.00
43934;BME280;59081;42.706;23.306;2023-03-03T15:55:16;95102.00;;;6.86;100.00
43934;BME280;59081;42.706;23.306;2023-03-03T15:58:52;95083.09;;;5.43;100.00
43934;BME280;59081;42.706;23.306;2023-03-03T16:03:41;95112.13;;;4.78;100.00
43934;BME280;59081;42.706;23.306;2023-03-03T16:06:23;94934.19;;;4.11;100.00
43934;BME280;59081;42.706;23.306;2023-03-03T16:14:42;95117.53;;;4.85;100.00
43934;BME280;59081;42.706;23.306;2023-03-03T16:17:23;95078.09;;;4.41;100.00
43934;BME280;59081;42.706;23.306;2023-03-03T16:20:11;95123.03;;;4.81;100.00
43934;BME280;59081;42.706;23.306;2023-03-03T16:25:29;95050.53;;;4.25;100.00
43934;BME280;59081;42.706;23.306;2023-03-03T16:31:17;95020.00;;;3.82;100.00
43934;BME280;59081;42.706;23.306;2023-03-03T16:33:58;95095.25;;;4.38;100.00
43934;BME280;59081;42.706;23.306;2023-03-03T16:36:50;95130.34;;;4.92;100.00
43934;BME280;59081;42.706;23.306;2023-03-03T16:42:29;95134.44;;;4.66;100.00
43934;BME280;59081;42.706;23.306;2023-03-03T16:50:05;95061.44;;;5.59;100.00
43934;BME280;59081;42.706;23.306;2023-03-03T16:52:39;95144.66;;;5.06;100.00
43934;BME280;59081;42.706;23.306;2023-03-03T16:55:16;95053.34;;;4.11;100.00
43934;BME280;59081;42.706;23.306;2023-03-03T16:58:01;95161.34;;;4.67;100.00
43934;BME280;59081;42.706;23.306;2023-03-03T17:00:54;95055.47;;;4.44;100.00
43934;BME280;59081;42.706;23.306;2023-03-03T17:03:37;95127.47;;;4.58;100.00
43934;BME280;59081;42.706;23.306;2023-03-03T17:06:17;94963.03;;;3.43;100.00
43934;BME280;59081;42.706;23.306;2023-03-03T17:09:06;95159.34;;;4.68;100.00
43934;BME280;59081;42.706;23.306;2023-03-03T17:15:03;95143.22;;;4.91;100.00
43934;BME280;59081;42.706;23.306;2023-03-03T17:25:56;95165.41;;;5.00;100.00
43934;BME280;59081;42.706;23.306;2023-03-03T17:28:44;95066.22;;;4.10;100.00
43934;BME280;59081;42.706;23.306;2023-03-03T17:31:25;95092.25;;;4.18;100.00
43934;BME280;59081;42.706;23.306;2023-03-03T17:34:18;95093.09;;;4.08;100.00
43934;BME280;59081;42.706;23.306;2023-03-03T17:40:10;95186.13;;;4.87;100.00